sensor_id;sensor_type;location;lat;lon;timestamp;temperature;humidity
48043;DHT22;33988;47.992;8.820;2023-05-10T00:01:08;20.80;56.60
48043;DHT22;33988;47.992;8.820;2023-05-10T00:03:35;20.80;56.70
48043;DHT22;33988;47.992;8.820;2023-05-10T00:06:05;20.70;56.50
48043;DHT22;33988;47.992;8.820;2023-05-10T00:08:34;20.70;56.50
48043;DHT22;33988;47.992;8.820;2023-05-10T00:11:03;20.70;56.50
48043;DHT22;33988;47.992;8.820;2023-05-10T00:13:33;20.60;56.60
48043;DHT22;33988;47.992;8.820;2023-05-10T00:16:02;20.60;56.60
48043;DHT22;33988;47.992;8.820;2023-05-10T00:18:29;20.60;56.60
48043;DHT22;33988;47.992;8.820;2023-05-10T00:20:56;20.60;56.60
48043;DHT22;33988;47.992;8.820;2023-05-10T00:23:23;20.60;56.60
48043;DHT22;33988;47.992;8.820;2023-05-10T00:25:54;20.60;56.60
48043;DHT22;33988;47.992;8.820;2023-05-10T00:28:21;20.60;56.70
48043;DHT22;33988;47.992;8.820;2023-05-10T00:30:48;20.60;56.70
48043;DHT22;33988;47.992;8.820;2023-05-10T00:33:15;20.60;56.70
48043;DHT22;33988;47.992;8.820;2023-05-10T00:35:42;20.60;56.70
48043;DHT22;33988;47.992;8.820;2023-05-10T00:38:08;20.50;56.60
48043;DHT22;33988;47.992;8.820;2023-05-10T00:40:38;20.50;56.60
48043;DHT22;33988;47.992;8.820;2023-05-10T00:43:07;20.50;56.60
48043;DHT22;33988;47.992;8.820;2023-05-10T00:45:35;20.30;56.70
48043;DHT22;33988;47.992;8.820;2023-05-10T00:48:05;20.50;56.50
48043;DHT22;33988;47.992;8.820;2023-05-10T00:50:35;20.50;56.40
48043;DHT22;33988;47.992;8.820;2023-05-10T00:53:02;20.50;56.40
48043;DHT22;33988;47.992;8.820;2023-05-10T00:55:30;20.40;56.30
48043;DHT22;33988;47.992;8.820;2023-05-10T00:57:57;20.40;56.20
48043;DHT22;33988;47.992;8.820;2023-05-10T01:00:24;20.40;56.20
48043;DHT22;33988;47.992;8.820;2023-05-10T01:02:53;20.40;56.20
48043;DHT22;33988;47.992;8.820;2023-05-10T01:05:22;20.40;56.30
48043;DHT22;33988;47.992;8.820;2023-05-10T01:07:53;20.40;56.30
48043;DHT22;33988;47.992;8.820;2023-05-10T01:10:20;20.30;56.30
48043;DHT22;33988;47.992;8.820;2023-05-10T01:12:47;20.30;56.30
48043;DHT22;33988;47.992;8.820;2023-05-10T01:15:17;20.30;56.30
48043;DHT22;33988;47.992;8.820;2023-05-10T01:17:46;20.30;56.40
48043;DHT22;33988;47.992;8.820;2023-05-10T01:20:17;20.30;56.40
48043;DHT22;33988;47.992;8.820;2023-05-10T01:31:03;20.20;56.50
48043;DHT22;33988;47.992;8.820;2023-05-10T01:34:08;20.10;56.50
48043;DHT22;33988;47.992;8.820;2023-05-10T01:36:45;20.10;56.50
48043;DHT22;33988;47.992;8.820;2023-05-10T01:39:24;20.10;56.40
48043;DHT22;33988;47.992;8.820;2023-05-10T01:47:37;20.10;56.40
48043;DHT22;33988;47.992;8.820;2023-05-10T01:50:15;20.10;56.50
48043;DHT22;33988;47.992;8.820;2023-05-10T01:52:49;20.10;56.40
48043;DHT22;33988;47.992;8.820;2023-05-10T01:55:25;20.10;56.40
48043;DHT22;33988;47.992;8.820;2023-05-10T01:58:11;20.10;56.40
48043;DHT22;33988;47.992;8.820;2023-05-10T02:00:43;20.00;56.40
48043;DHT22;33988;47.992;8.820;2023-05-10T02:03:12;20.10;56.40
48043;DHT22;33988;47.992;8.820;2023-05-10T02:05:43;20.00;56.30
48043;DHT22;33988;47.992;8.820;2023-05-10T02:08:16;20.00;56.40
48043;DHT22;33988;47.992;8.820;2023-05-10T02:10:47;20.00;56.40
48043;DHT22;33988;47.992;8.820;2023-05-10T02:13:17;20.00;56.40
48043;DHT22;33988;47.992;8.820;2023-05-10T02:15:47;20.00;56.40
48043;DHT22;33988;47.992;8.820;2023-05-10T02:18:15;20.00;56.30
48043;DHT22;33988;47.992;8.820;2023-05-10T02:20:45;20.00;56.30
48043;DHT22;33988;47.992;8.820;2023-05-10T02:23:19;20.00;56.30
48043;DHT22;33988;47.992;8.820;2023-05-10T02:25:52;20.00;56.40
48043;DHT22;33988;47.992;8.820;2023-05-10T02:28:22;19.90;56.30
48043;DHT22;33988;47.992;8.820;2023-05-10T02:30:51;19.90;56.30
48043;DHT22;33988;47.992;8.820;2023-05-10T02:33:19;19.90;56.40
48043;DHT22;33988;47.992;8.820;2023-05-10T02:35:47;19.90;56.30
48043;DHT22;33988;47.992;8.820;2023-05-10T02:38:19;19.90;56.40
48043;DHT22;33988;47.992;8.820;2023-05-10T02:40:49;19.80;56.30
48043;DHT22;33988;47.992;8.820;2023-05-10T02:43:17;19.60;56.50
48043;DHT22;33988;47.992;8.820;2023-05-10T02:45:47;19.80;56.40
48043;DHT22;33988;47.992;8.820;2023-05-10T02:48:17;19.80;56.40
48043;DHT22;33988;47.992;8.820;2023-05-10T02:50:50;19.80;56.50
48043;DHT22;33988;47.992;8.820;2023-05-10T02:53:22;19.70;56.50
48043;DHT22;33988;47.992;8.820;2023-05-10T02:55:52;19.70;56.50
48043;DHT22;33988;47.992;8.820;2023-05-10T02:58:24;19.70;56.50
48043;DHT22;33988;47.992;8.820;2023-05-10T03:00:51;19.70;56.60
48043;DHT22;33988;47.992;8.820;2023-05-10T03:03:19;19.70;56.70
48043;DHT22;33988;47.992;8.820;2023-05-10T03:05:49;19.70;56.70
48043;DHT22;33988;47.992;8.820;2023-05-10T03:08:18;19.70;56.70
48043;DHT22;33988;47.992;8.820;2023-05-10T03:13:39;19.40;56.80
48043;DHT22;33988;47.992;8.820;2023-05-10T03:16:16;19.60;56.70
48043;DHT22;33988;47.992;8.820;2023-05-10T03:19:11;19.60;56.70
48043;DHT22;33988;47.992;8.820;2023-05-10T03:21:47;19.60;56.70
48043;DHT22;33988;47.992;8.820;2023-05-10T03:24:16;19.60;56.80
48043;DHT22;33988;47.992;8.820;2023-05-10T03:26:49;19.60;56.90
48043;DHT22;33988;47.992;8.820;2023-05-10T03:29:18;19.50;56.80
48043;DHT22;33988;47.992;8.820;2023-05-10T03:31:45;19.60;56.90
48043;DHT22;33988;47.992;8.820;2023-05-10T03:34:23;19.60;56.90
48043;DHT22;33988;47.992;8.820;2023-05-10T03:36:53;19.60;57.10
48043;DHT22;33988;47.992;8.820;2023-05-10T03:39:21;19.60;57.00
48043;DHT22;33988;47.992;8.820;2023-05-10T03:41:48;19.60;57.00
48043;DHT22;33988;47.992;8.820;2023-05-10T03:44:15;19.60;56.90
48043;DHT22;33988;47.992;8.820;2023-05-10T03:46:42;19.60;57.00
48043;DHT22;33988;47.992;8.820;2023-05-10T03:49:11;19.60;57.00
48043;DHT22;33988;47.992;8.820;2023-05-10T03:51:38;19.60;57.00
48043;DHT22;33988;47.992;8.820;2023-05-10T03:54:05;19.60;57.00
48043;DHT22;33988;47.992;8.820;2023-05-10T03:56:34;19.60;56.90
48043;DHT22;33988;47.992;8.820;2023-05-10T03:59:01;19.60;56.90
48043;DHT22;33988;47.992;8.820;2023-05-10T04:01:35;19.60;56.90
48043;DHT22;33988;47.992;8.820;2023-05-10T04:04:05;19.60;56.90
48043;DHT22;33988;47.992;8.820;2023-05-10T04:06:32;19.60;56.80
48043;DHT22;33988;47.992;8.820;2023-05-10T04:08:59;19.60;56.80
48043;DHT22;33988;47.992;8.820;2023-05-10T04:11:30;19.60;56.80
48043;DHT22;33988;47.992;8.820;2023-05-10T04:14:01;19.60;56.90
48043;DHT22;33988;47.992;8.820;2023-05-10T04:16:28;19.60;56.90
48043;DHT22;33988;47.992;8.820;2023-05-10T04:18:55;19.60;56.80
48043;DHT22;33988;47.992;8.820;2023-05-10T04:21:22;19.50;56.80
48043;DHT22;33988;47.992;8.820;2023-05-10T04:23:49;19.60;56.90
48043;DHT22;33988;47.992;8.820;2023-05-10T04:26:16;19.50;56.90
48043;DHT22;33988;47.992;8.820;2023-05-10T04:28:43;19.50;56.90
48043;DHT22;33988;47.992;8.820;2023-05-10T04:31:10;19.50;57.00
48043;DHT22;33988;47.992;8.820;2023-05-10T04:33:40;19.50;57.00
48043;DHT22;33988;47.992;8.820;2023-05-10T04:36:07;19.50;57.00
48043;DHT22;33988;47.992;8.820;2023-05-10T04:38:36;19.50;57.10
48043;DHT22;33988;47.992;8.820;2023-05-10T04:41:07;19.50;57.10
48043;DHT22;33988;47.992;8.820;2023-05-10T04:43:38;19.50;57.10
48043;DHT22;33988;47.992;8.820;2023-05-10T04:46:05;19.50;57.20
48043;DHT22;33988;47.992;8.820;2023-05-10T04:48:33;19.50;57.20
48043;DHT22;33988;47.992;8.820;2023-05-10T04:51:02;19.50;57.20
48043;DHT22;33988;47.992;8.820;2023-05-10T04:53:33;19.50;57.20
48043;DHT22;33988;47.992;8.820;2023-05-10T04:56:05;19.50;57.20
48043;DHT22;33988;47.992;8.820;2023-05-10T04:58:32;19.50;57.30
48043;DHT22;33988;47.992;8.820;2023-05-10T05:01:10;19.50;57.20
48043;DHT22;33988;47.992;8.820;2023-05-10T05:03:38;19.40;57.20
48043;DHT22;33988;47.992;8.820;2023-05-10T05:06:05;19.50;57.80
48043;DHT22;33988;47.992;8.820;2023-05-10T05:08:34;19.40;57.10
48043;DHT22;33988;47.992;8.820;2023-05-10T05:11:01;19.50;57.10
48043;DHT22;33988;47.992;8.820;2023-05-10T05:13:28;19.50;57.80
48043;DHT22;33988;47.992;8.820;2023-05-10T05:15:59;19.50;57.20
48043;DHT22;33988;47.992;8.820;2023-05-10T05:18:27;19.50;57.30
48043;DHT22;33988;47.992;8.820;2023-05-10T05:20:56;19.50;57.30
48043;DHT22;33988;47.992;8.820;2023-05-10T05:23:23;19.50;57.30
48043;DHT22;33988;47.992;8.820;2023-05-10T05:25:52;19.50;57.40
48043;DHT22;33988;47.992;8.820;2023-05-10T05:28:20;19.50;57.30
48043;DHT22;33988;47.992;8.820;2023-05-10T05:30:47;19.50;57.30
48043;DHT22;33988;47.992;8.820;2023-05-10T05:33:14;19.50;57.30
48043;DHT22;33988;47.992;8.820;2023-05-10T05:35:44;19.50;57.30
48043;DHT22;33988;47.992;8.820;2023-05-10T05:38:17;19.50;57.40
48043;DHT22;33988;47.992;8.820;2023-05-10T05:40:45;19.50;57.40
48043;DHT22;33988;47.992;8.820;2023-05-10T05:43:14;19.50;57.30
48043;DHT22;33988;47.992;8.820;2023-05-10T05:45:46;19.60;57.30
48043;DHT22;33988;47.992;8.820;2023-05-10T05:48:15;19.60;57.30
48043;DHT22;33988;47.992;8.820;2023-05-10T05:50:44;19.60;57.30
48043;DHT22;33988;47.992;8.820;2023-05-10T05:53:12;19.40;57.50
48043;DHT22;33988;47.992;8.820;2023-05-10T05:55:39;19.50;57.20
48043;DHT22;33988;47.992;8.820;2023-05-10T05:58:06;19.60;57.30
48043;DHT22;33988;47.992;8.820;2023-05-10T06:00:35;19.60;57.20
48043;DHT22;33988;47.992;8.820;2023-05-10T06:03:02;19.60;57.20
48043;DHT22;33988;47.992;8.820;2023-05-10T06:05:30;19.60;57.30
48043;DHT22;33988;47.992;8.820;2023-05-10T06:07:59;19.60;57.40
48043;DHT22;33988;47.992;8.820;2023-05-10T06:10:29;19.60;57.40
48043;DHT22;33988;47.992;8.820;2023-05-10T06:12:57;19.60;57.40
48043;DHT22;33988;47.992;8.820;2023-05-10T06:15:27;19.60;57.50
48043;DHT22;33988;47.992;8.820;2023-05-10T06:17:54;19.60;57.50
48043;DHT22;33988;47.992;8.820;2023-05-10T06:20:24;19.60;57.50
48043;DHT22;33988;47.992;8.820;2023-05-10T06:22:51;19.60;57.50
48043;DHT22;33988;47.992;8.820;2023-05-10T06:25:18;19.60;57.40
48043;DHT22;33988;47.992;8.820;2023-05-10T06:27:50;19.60;57.40
48043;DHT22;33988;47.992;8.820;2023-05-10T06:30:19;19.60;57.40
48043;DHT22;33988;47.992;8.820;2023-05-10T06:32:49;19.60;57.40
48043;DHT22;33988;47.992;8.820;2023-05-10T06:35:16;19.70;57.40
48043;DHT22;33988;47.992;8.820;2023-05-10T06:37:46;19.70;57.40
48043;DHT22;33988;47.992;8.820;2023-05-10T06:40:18;19.70;57.50
48043;DHT22;33988;47.992;8.820;2023-05-10T06:42:46;19.70;57.50
48043;DHT22;33988;47.992;8.820;2023-05-10T06:45:15;19.70;57.50
48043;DHT22;33988;47.992;8.820;2023-05-10T06:47:42;19.70;57.40
48043;DHT22;33988;47.992;8.820;2023-05-10T06:50:12;19.70;57.50
48043;DHT22;33988;47.992;8.820;2023-05-10T06:52:39;19.70;57.50
48043;DHT22;33988;47.992;8.820;2023-05-10T06:55:10;19.70;57.60
48043;DHT22;33988;47.992;8.820;2023-05-10T06:57:37;19.70;57.50
48043;DHT22;33988;47.992;8.820;2023-05-10T07:00:04;19.70;57.50
48043;DHT22;33988;47.992;8.820;2023-05-10T07:02:32;19.70;57.40
48043;DHT22;33988;47.992;8.820;2023-05-10T07:04:59;19.70;57.40
48043;DHT22;33988;47.992;8.820;2023-05-10T07:07:29;19.70;57.40
48043;DHT22;33988;47.992;8.820;2023-05-10T07:09:58;19.70;57.30
48043;DHT22;33988;47.992;8.820;2023-05-10T07:12:25;19.70;57.30
48043;DHT22;33988;47.992;8.820;2023-05-10T07:14:55;19.70;57.40
48043;DHT22;33988;47.992;8.820;2023-05-10T07:17:24;19.70;57.50
48043;DHT22;33988;47.992;8.820;2023-05-10T07:19:51;19.70;57.60
48043;DHT22;33988;47.992;8.820;2023-05-10T07:22:18;19.70;57.60
48043;DHT22;33988;47.992;8.820;2023-05-10T07:24:45;19.70;57.60
48043;DHT22;33988;47.992;8.820;2023-05-10T07:27:15;19.80;57.70
48043;DHT22;33988;47.992;8.820;2023-05-10T07:29:42;19.80;57.70
48043;DHT22;33988;47.992;8.820;2023-05-10T07:32:11;19.80;57.60
48043;DHT22;33988;47.992;8.820;2023-05-10T07:34:38;19.90;57.50
48043;DHT22;33988;47.992;8.820;2023-05-10T07:37:05;19.90;57.50
48043;DHT22;33988;47.992;8.820;2023-05-10T07:39:32;19.90;57.60
48043;DHT22;33988;47.992;8.820;2023-05-10T07:42:02;19.90;57.50
48043;DHT22;33988;47.992;8.820;2023-05-10T07:44:29;19.90;57.50
48043;DHT22;33988;47.992;8.820;2023-05-10T07:46:59;19.90;57.40
48043;DHT22;33988;47.992;8.820;2023-05-10T07:49:26;19.90;57.50
48043;DHT22;33988;47.992;8.820;2023-05-10T07:51:57;20.00;57.50
48043;DHT22;33988;47.992;8.820;2023-05-10T07:54:24;19.80;57.60
48043;DHT22;33988;47.992;8.820;2023-05-10T07:56:51;20.00;57.60
48043;DHT22;33988;47.992;8.820;2023-05-10T07:59:18;20.00;57.60
48043;DHT22;33988;47.992;8.820;2023-05-10T08:01:47;20.10;57.70
48043;DHT22;33988;47.992;8.820;2023-05-10T08:04:17;20.10;57.70
48043;DHT22;33988;47.992;8.820;2023-05-10T08:06:46;20.10;57.60
48043;DHT22;33988;47.992;8.820;2023-05-10T08:09:13;20.20;57.60
48043;DHT22;33988;47.992;8.820;2023-05-10T08:11:40;20.20;57.50
48043;DHT22;33988;47.992;8.820;2023-05-10T08:14:11;20.20;57.40
48043;DHT22;33988;47.992;8.820;2023-05-10T08:16:40;20.20;57.50
48043;DHT22;33988;47.992;8.820;2023-05-10T08:19:07;20.20;57.50
48043;DHT22;33988;47.992;8.820;2023-05-10T08:21:34;20.30;57.50
48043;DHT22;33988;47.992;8.820;2023-05-10T08:24:02;20.30;57.50
48043;DHT22;33988;47.992;8.820;2023-05-10T08:26:30;20.30;57.40
48043;DHT22;33988;47.992;8.820;2023-05-10T08:29:00;20.40;57.30
48043;DHT22;33988;47.992;8.820;2023-05-10T08:31:26;20.40;57.20
48043;DHT22;33988;47.992;8.820;2023-05-10T08:33:56;20.50;57.00
48043;DHT22;33988;47.992;8.820;2023-05-10T08:36:26;20.50;56.80
48043;DHT22;33988;47.992;8.820;2023-05-10T08:38:54;20.50;56.40
48043;DHT22;33988;47.992;8.820;2023-05-10T08:41:22;20.50;56.20
48043;DHT22;33988;47.992;8.820;2023-05-10T08:43:51;20.50;55.80
48043;DHT22;33988;47.992;8.820;2023-05-10T08:46:22;20.40;55.50
48043;DHT22;33988;47.992;8.820;2023-05-10T08:48:53;20.30;55.40
48043;DHT22;33988;47.992;8.820;2023-05-10T08:51:27;20.30;55.50
48043;DHT22;33988;47.992;8.820;2023-05-10T08:53:59;20.20;55.60
48043;DHT22;33988;47.992;8.820;2023-05-10T08:56:27;20.10;55.60
48043;DHT22;33988;47.992;8.820;2023-05-10T08:58:54;20.10;55.60
48043;DHT22;33988;47.992;8.820;2023-05-10T09:01:21;20.00;55.60
48043;DHT22;33988;47.992;8.820;2023-05-10T09:03:51;20.00;55.70
48043;DHT22;33988;47.992;8.820;2023-05-10T09:06:19;20.00;55.90
48043;DHT22;33988;47.992;8.820;2023-05-10T09:08:46;19.90;55.90
48043;DHT22;33988;47.992;8.820;2023-05-10T09:11:14;19.90;56.10
48043;DHT22;33988;47.992;8.820;2023-05-10T09:13:42;19.80;56.20
48043;DHT22;33988;47.992;8.820;2023-05-10T09:16:12;19.80;56.30
48043;DHT22;33988;47.992;8.820;2023-05-10T09:18:48;19.80;56.50
48043;DHT22;33988;47.992;8.820;2023-05-10T09:21:19;19.80;56.70
48043;DHT22;33988;47.992;8.820;2023-05-10T09:23:49;19.80;56.90
48043;DHT22;33988;47.992;8.820;2023-05-10T09:26:26;19.80;56.90
48043;DHT22;33988;47.992;8.820;2023-05-10T09:28:59;19.80;56.90
48043;DHT22;33988;47.992;8.820;2023-05-10T09:31:49;19.80;57.00
48043;DHT22;33988;47.992;8.820;2023-05-10T09:34:29;19.70;57.20
48043;DHT22;33988;47.992;8.820;2023-05-10T09:37:01;19.70;57.40
48043;DHT22;33988;47.992;8.820;2023-05-10T09:42:02;19.80;57.40
48043;DHT22;33988;47.992;8.820;2023-05-10T09:44:32;19.80;57.50
48043;DHT22;33988;47.992;8.820;2023-05-10T09:47:03;19.90;57.70
48043;DHT22;33988;47.992;8.820;2023-05-10T09:49:30;19.90;57.90
48043;DHT22;33988;47.992;8.820;2023-05-10T09:52:04;20.00;58.10
48043;DHT22;33988;47.992;8.820;2023-05-10T09:54:34;20.10;58.10
48043;DHT22;33988;47.992;8.820;2023-05-10T09:57:01;20.10;58.00
48043;DHT22;33988;47.992;8.820;2023-05-10T09:59:33;20.20;58.00
48043;DHT22;33988;47.992;8.820;2023-05-10T10:02:01;20.20;57.80
48043;DHT22;33988;47.992;8.820;2023-05-10T10:04:29;20.30;57.70
48043;DHT22;33988;47.992;8.820;2023-05-10T10:07:04;20.30;57.70
48043;DHT22;33988;47.992;8.820;2023-05-10T10:09:34;20.40;57.80
48043;DHT22;33988;47.992;8.820;2023-05-10T10:12:03;20.40;57.60
48043;DHT22;33988;47.992;8.820;2023-05-10T10:14:36;20.50;57.50
48043;DHT22;33988;47.992;8.820;2023-05-10T10:17:03;20.50;57.30
48043;DHT22;33988;47.992;8.820;2023-05-10T10:19:34;20.50;57.20
48043;DHT22;33988;47.992;8.820;2023-05-10T10:22:05;20.60;57.20
48043;DHT22;33988;47.992;8.820;2023-05-10T10:24:32;20.60;57.00
48043;DHT22;33988;47.992;8.820;2023-05-10T10:27:08;20.60;56.90
48043;DHT22;33988;47.992;8.820;2023-05-10T10:30:06;20.60;56.80
48043;DHT22;33988;47.992;8.820;2023-05-10T10:36:02;20.60;56.90
48043;DHT22;33988;47.992;8.820;2023-05-10T10:38:55;20.60;56.90
48043;DHT22;33988;47.992;8.820;2023-05-10T10:41:33;20.60;57.00
48043;DHT22;33988;47.992;8.820;2023-05-10T10:52:20;20.80;57.10
48043;DHT22;33988;47.992;8.820;2023-05-10T10:57:47;20.80;57.00
48043;DHT22;33988;47.992;8.820;2023-05-10T11:08:41;21.00;56.70
48043;DHT22;33988;47.992;8.820;2023-05-10T11:11:09;21.00;56.30
48043;DHT22;33988;47.992;8.820;2023-05-10T11:13:44;21.10;56.50
48043;DHT22;33988;47.992;8.820;2023-05-10T11:16:18;21.10;56.30
48043;DHT22;33988;47.992;8.820;2023-05-10T11:19:06;21.20;55.80
48043;DHT22;33988;47.992;8.820;2023-05-10T11:24:31;21.20;55.30
48043;DHT22;33988;47.992;8.820;2023-05-10T11:27:02;21.30;55.30
48043;DHT22;33988;47.992;8.820;2023-05-10T11:29:29;21.30;55.00
48043;DHT22;33988;47.992;8.820;2023-05-10T11:31:58;21.30;54.80
48043;DHT22;33988;47.992;8.820;2023-05-10T11:34:30;21.30;54.60
48043;DHT22;33988;47.992;8.820;2023-05-10T11:37:00;21.30;54.40
48043;DHT22;33988;47.992;8.820;2023-05-10T11:39:28;21.30;54.30
48043;DHT22;33988;47.992;8.820;2023-05-10T11:41:59;21.30;54.20
48043;DHT22;33988;47.992;8.820;2023-05-10T11:44:30;21.30;53.90
48043;DHT22;33988;47.992;8.820;2023-05-10T11:46:59;21.20;53.90
48043;DHT22;33988;47.992;8.820;2023-05-10T11:49:29;21.20;54.00
48043;DHT22;33988;47.992;8.820;2023-05-10T11:52:08;21.20;54.10
48043;DHT22;33988;47.992;8.820;2023-05-10T11:54:37;21.10;54.00
48043;DHT22;33988;47.992;8.820;2023-05-10T11:57:04;21.10;54.00
48043;DHT22;33988;47.992;8.820;2023-05-10T11:59:31;21.10;53.90
48043;DHT22;33988;47.992;8.820;2023-05-10T12:02:01;21.10;53.90
48043;DHT22;33988;47.992;8.820;2023-05-10T12:04:30;21.10;53.90
48043;DHT22;33988;47.992;8.820;2023-05-10T12:06:58;21.10;53.80
48043;DHT22;33988;47.992;8.820;2023-05-10T12:09:30;21.10;53.80
48043;DHT22;33988;47.992;8.820;2023-05-10T12:12:10;21.10;53.90
48043;DHT22;33988;47.992;8.820;2023-05-10T12:14:37;21.10;54.10
48043;DHT22;33988;47.992;8.820;2023-05-10T12:17:04;21.20;54.30
48043;DHT22;33988;47.992;8.820;2023-05-10T12:19:41;21.20;54.40
48043;DHT22;33988;47.992;8.820;2023-05-10T12:22:08;21.20;54.30
48043;DHT22;33988;47.992;8.820;2023-05-10T12:24:35;21.20;54.30
48043;DHT22;33988;47.992;8.820;2023-05-10T12:27:05;21.30;54.10
48043;DHT22;33988;47.992;8.820;2023-05-10T12:29:34;21.30;54.00
48043;DHT22;33988;47.992;8.820;2023-05-10T12:32:08;21.40;54.10
48043;DHT22;33988;47.992;8.820;2023-05-10T12:34:37;21.40;53.80
48043;DHT22;33988;47.992;8.820;2023-05-10T12:37:05;21.40;53.60
48043;DHT22;33988;47.992;8.820;2023-05-10T12:39:42;21.50;53.70
48043;DHT22;33988;47.992;8.820;2023-05-10T12:42:11;21.50;53.60
48043;DHT22;33988;47.992;8.820;2023-05-10T12:44:39;21.50;53.50
48043;DHT22;33988;47.992;8.820;2023-05-10T12:47:10;21.50;53.30
48043;DHT22;33988;47.992;8.820;2023-05-10T12:49:37;21.60;53.30
48043;DHT22;33988;47.992;8.820;2023-05-10T12:52:06;21.50;53.20
48043;DHT22;33988;47.992;8.820;2023-05-10T12:54:35;21.60;53.00
48043;DHT22;33988;47.992;8.820;2023-05-10T12:57:02;21.60;53.00
48043;DHT22;33988;47.992;8.820;2023-05-10T12:59:29;21.60;53.00
48043;DHT22;33988;47.992;8.820;2023-05-10T13:01:57;21.60;52.80
48043;DHT22;33988;47.992;8.820;2023-05-10T13:04:24;21.60;52.70
48043;DHT22;33988;47.992;8.820;2023-05-10T13:06:54;21.70;52.80
48043;DHT22;33988;47.992;8.820;2023-05-10T13:09:26;21.60;52.40
48043;DHT22;33988;47.992;8.820;2023-05-10T13:11:55;21.70;52.30
48043;DHT22;33988;47.992;8.820;2023-05-10T13:14:24;21.70;52.00
48043;DHT22;33988;47.992;8.820;2023-05-10T13:16:51;21.70;52.00
48043;DHT22;33988;47.992;8.820;2023-05-10T13:19:25;21.70;52.00
48043;DHT22;33988;47.992;8.820;2023-05-10T13:21:52;21.70;51.70
48043;DHT22;33988;47.992;8.820;2023-05-10T13:24:22;21.80;51.00
48043;DHT22;33988;47.992;8.820;2023-05-10T13:26:51;21.80;50.30
48043;DHT22;33988;47.992;8.820;2023-05-10T13:29:21;21.80;50.30
48043;DHT22;33988;47.992;8.820;2023-05-10T13:31:49;21.80;50.30
48043;DHT22;33988;47.992;8.820;2023-05-10T13:34:16;21.80;50.40
48043;DHT22;33988;47.992;8.820;2023-05-10T13:36:47;21.80;50.60
48043;DHT22;33988;47.992;8.820;2023-05-10T13:39:15;21.80;50.40
48043;DHT22;33988;47.992;8.820;2023-05-10T13:41:43;21.80;50.30
48043;DHT22;33988;47.992;8.820;2023-05-10T13:44:12;21.80;50.40
48043;DHT22;33988;47.992;8.820;2023-05-10T13:46:42;21.80;50.30
48043;DHT22;33988;47.992;8.820;2023-05-10T13:49:09;21.80;50.40
48043;DHT22;33988;47.992;8.820;2023-05-10T13:51:36;21.80;50.30
48043;DHT22;33988;47.992;8.820;2023-05-10T13:54:03;21.80;50.20
48043;DHT22;33988;47.992;8.820;2023-05-10T13:56:32;21.90;50.20
48043;DHT22;33988;47.992;8.820;2023-05-10T13:58:59;21.90;50.10
48043;DHT22;33988;47.992;8.820;2023-05-10T14:01:29;21.90;50.00
48043;DHT22;33988;47.992;8.820;2023-05-10T14:03:59;21.90;49.90
48043;DHT22;33988;47.992;8.820;2023-05-10T14:06:28;21.90;49.70
48043;DHT22;33988;47.992;8.820;2023-05-10T14:08:55;21.80;49.50
48043;DHT22;33988;47.992;8.820;2023-05-10T14:11:22;21.80;49.30
48043;DHT22;33988;47.992;8.820;2023-05-10T14:13:54;21.80;49.30
48043;DHT22;33988;47.992;8.820;2023-05-10T14:16:21;21.90;49.40
48043;DHT22;33988;47.992;8.820;2023-05-10T14:18:50;21.80;49.40
48043;DHT22;33988;47.992;8.820;2023-05-10T14:21:20;21.80;49.30
48043;DHT22;33988;47.992;8.820;2023-05-10T14:23:47;21.80;49.30
48043;DHT22;33988;47.992;8.820;2023-05-10T14:26:14;21.80;49.30
48043;DHT22;33988;47.992;8.820;2023-05-10T14:28:41;21.80;49.30
48043;DHT22;33988;47.992;8.820;2023-05-10T14:31:08;21.80;49.30
48043;DHT22;33988;47.992;8.820;2023-05-10T14:33:35;21.80;49.30
48043;DHT22;33988;47.992;8.820;2023-05-10T14:36:04;21.80;49.40
48043;DHT22;33988;47.992;8.820;2023-05-10T14:38:34;21.70;49.30
48043;DHT22;33988;47.992;8.820;2023-05-10T14:41:02;21.70;49.30
48043;DHT22;33988;47.992;8.820;2023-05-10T14:43:29;21.70;49.30
48043;DHT22;33988;47.992;8.820;2023-05-10T14:45:59;21.70;49.40
48043;DHT22;33988;47.992;8.820;2023-05-10T14:48:26;21.70;49.40
48043;DHT22;33988;47.992;8.820;2023-05-10T14:50:53;21.70;49.40
48043;DHT22;33988;47.992;8.820;2023-05-10T14:53:20;21.70;49.30
48043;DHT22;33988;47.992;8.820;2023-05-10T14:55:49;21.60;48.90
48043;DHT22;33988;47.992;8.820;2023-05-10T14:58:16;21.60;49.20
48043;DHT22;33988;47.992;8.820;2023-05-10T15:00:43;21.50;49.40
48043;DHT22;33988;47.992;8.820;2023-05-10T15:03:13;21.50;49.60
48043;DHT22;33988;47.992;8.820;2023-05-10T15:05:43;21.40;49.70
48043;DHT22;33988;47.992;8.820;2023-05-10T15:08:10;21.30;49.80
48043;DHT22;33988;47.992;8.820;2023-05-10T15:10:39;21.20;49.80
48043;DHT22;33988;47.992;8.820;2023-05-10T15:13:08;21.20;49.90
48043;DHT22;33988;47.992;8.820;2023-05-10T15:15:35;21.10;50.00
48043;DHT22;33988;47.992;8.820;2023-05-10T15:18:02;21.00;50.10
48043;DHT22;33988;47.992;8.820;2023-05-10T15:20:32;21.00;50.30
48043;DHT22;33988;47.992;8.820;2023-05-10T15:22:59;20.90;50.50
48043;DHT22;33988;47.992;8.820;2023-05-10T15:25:26;20.80;50.70
48043;DHT22;33988;47.992;8.820;2023-05-10T15:27:56;20.70;50.90
48043;DHT22;33988;47.992;8.820;2023-05-10T15:30:23;20.70;51.20
48043;DHT22;33988;47.992;8.820;2023-05-10T15:32:53;20.60;51.30
48043;DHT22;33988;47.992;8.820;2023-05-10T15:35:20;20.50;51.50
48043;DHT22;33988;47.992;8.820;2023-05-10T15:37:48;20.50;51.80
48043;DHT22;33988;47.992;8.820;2023-05-10T15:40:15;20.50;52.00
48043;DHT22;33988;47.992;8.820;2023-05-10T15:42:43;20.40;52.20
48043;DHT22;33988;47.992;8.820;2023-05-10T15:45:10;20.40;52.30
48043;DHT22;33988;47.992;8.820;2023-05-10T15:47:38;20.40;52.40
48043;DHT22;33988;47.992;8.820;2023-05-10T15:50:08;20.30;52.50
48043;DHT22;33988;47.992;8.820;2023-05-10T15:52:38;20.30;52.50
48043;DHT22;33988;47.992;8.820;2023-05-10T15:55:05;20.40;52.30
48043;DHT22;33988;47.992;8.820;2023-05-10T15:57:39;20.30;51.90
48043;DHT22;33988;47.992;8.820;2023-05-10T16:00:08;20.20;51.90
48043;DHT22;33988;47.992;8.820;2023-05-10T16:02:36;20.20;52.10
48043;DHT22;33988;47.992;8.820;2023-05-10T16:05:03;20.10;52.30
48043;DHT22;33988;47.992;8.820;2023-05-10T16:07:31;20.10;52.40
48043;DHT22;33988;47.992;8.820;2023-05-10T16:09:58;20.10;52.50
48043;DHT22;33988;47.992;8.820;2023-05-10T16:12:25;20.00;52.60
48043;DHT22;33988;47.992;8.820;2023-05-10T16:14:52;20.00;52.80
48043;DHT22;33988;47.992;8.820;2023-05-10T16:17:23;20.00;52.90
48043;DHT22;33988;47.992;8.820;2023-05-10T16:19:50;20.00;53.00
48043;DHT22;33988;47.992;8.820;2023-05-10T16:22:17;20.00;53.00
48043;DHT22;33988;47.992;8.820;2023-05-10T16:24:44;20.00;53.20
48043;DHT22;33988;47.992;8.820;2023-05-10T16:27:11;19.90;53.20
48043;DHT22;33988;47.992;8.820;2023-05-10T16:29:40;19.90;53.40